Time;durP1;ratioP1;P1;durP2;ratioP2;P2;SDS_P1;SDS_P2;PMS_P1;PMS_P2;Temp;Humidity;BMP_temperature;BMP_pressure;BME280_temperature;BME280_humidity;BME280_pressure;Samples;Min_cycle;Max_cycle;Signal;HPM_P1;HPM_P2
2023/05/16 00:02:07;;;;;;;7.68;4.15;;;12.50;99.90;;;;;;5037633;28;20029;-73
2023/05/16 00:04:33;;;;;;;10.50;5.25;;;12.50;99.90;;;;;;5036322;28;20037;-74
2023/05/16 00:06:58;;;;;;;9.40;5.40;;;12.40;99.90;;;;;;5036065;28;20037;-73
2023/05/16 00:09:24;;;;;;;9.35;5.07;;;12.40;99.90;;;;;;5036675;28;20109;-73
2023/05/16 00:11:50;;;;;;;8.68;5.07;;;12.30;99.90;;;;;;5037516;28;20493;-74
2023/05/16 00:14:16;;;;;;;9.00;5.10;;;12.30;99.90;;;;;;5037497;28;20432;-73
2023/05/16 00:16:41;;;;;;;9.60;5.68;;;12.30;99.90;;;;;;5037568;28;20462;-74
2023/05/16 00:19:07;;;;;;;11.18;5.32;;;12.30;99.90;;;;;;5037200;28;20109;-75
2023/05/16 00:21:33;;;;;;;6.00;4.53;;;12.30;99.90;;;;;;5037362;28;20021;-73
2023/05/16 00:23:59;;;;;;;8.13;4.60;;;12.30;99.90;;;;;;5037117;28;20041;-73
2023/05/16 00:26:25;;;;;;;11.80;5.68;;;12.30;99.90;;;;;;5037460;28;20068;-73
2023/05/16 00:28:50;;;;;;;9.00;5.85;;;12.30;99.90;;;;;;5037523;28;20421;-74
2023/05/16 00:31:16;;;;;;;9.05;5.28;;;12.30;99.90;;;;;;5035911;28;20029;-74
2023/05/16 00:33:42;;;;;;;7.50;5.07;;;12.30;99.90;;;;;;5037188;28;20025;-74
2023/05/16 00:36:08;;;;;;;7.60;4.95;;;12.20;99.90;;;;;;5035765;28;20027;-73
2023/05/16 00:38:33;;;;;;;12.13;5.18;;;12.20;99.90;;;;;;5035773;28;20052;-73
2023/05/16 00:40:59;;;;;;;10.50;5.57;;;12.20;99.90;;;;;;5035620;28;20028;-73
2023/05/16 00:43:25;;;;;;;9.40;5.43;;;12.20;99.90;;;;;;5035840;28;20031;-73
2023/05/16 00:45:50;;;;;;;13.68;6.28;;;12.10;99.90;;;;;;5035716;28;20112;-73
2023/05/16 00:48:17;;;;;;;11.55;5.32;;;12.20;99.90;;;;;;5035902;28;20030;-75
2023/05/16 00:50:43;;;;;;;9.98;5.90;;;12.20;99.90;;;;;;5037063;28;20084;-74
2023/05/16 00:53:09;;;;;;;8.77;5.32;;;12.20;99.90;;;;;;5036969;28;20033;-75
2023/05/16 00:55:35;;;;;;;10.38;5.63;;;12.20;99.90;;;;;;5036960;28;20022;-75
2023/05/16 00:58:00;;;;;;;10.00;5.68;;;12.20;99.90;;;;;;5037647;28;20029;-74
2023/05/16 01:00:26;;;;;;;8.63;5.43;;;12.20;99.90;;;;;;5041047;28;20023;-73
2023/05/16 01:02:52;;;;;;;7.38;5.40;;;12.20;99.90;;;;;;5041065;28;20029;-74
2023/05/16 01:05:21;;;;;;;11.73;7.38;;;12.20;99.90;;;;;;5039601;28;20108;-73
2023/05/16 01:07:46;;;;;;;9.25;5.53;;;12.20;99.90;;;;;;5041058;28;20478;-74
2023/05/16 01:10:12;;;;;;;11.07;6.18;;;12.20;99.90;;;;;;5040933;28;20048;-74
2023/05/16 01:12:56;;;;;;;12.57;5.40;;;12.20;99.90;;;;;;5040942;28;20056;-73
2023/05/16 01:15:31;;;;;;;9.32;5.93;;;12.20;99.90;;;;;;5040772;28;20037;-74
2023/05/16 01:18:07;;;;;;;8.43;5.25;;;12.20;99.90;;;;;;5040799;28;20049;-72
2023/05/16 01:20:47;;;;;;;10.70;5.43;;;12.20;99.90;;;;;;5040700;28;20022;-74
2023/05/16 01:23:37;;;;;;;9.52;6.53;;;12.20;99.90;;;;;;5040324;28;20021;-74
2023/05/16 01:26:20;;;;;;;8.45;5.85;;;12.20;99.90;;;;;;5040802;28;20028;-74
2023/05/16 01:28:46;;;;;;;9.88;5.25;;;12.20;99.90;;;;;;5040531;28;20051;-75
2023/05/16 01:31:12;;;;;;;11.63;5.30;;;12.20;99.90;;;;;;5039429;28;20028;-72
2023/05/16 01:33:38;;;;;;;10.48;5.70;;;12.20;99.90;;;;;;5040372;28;20104;-74
2023/05/16 01:36:18;;;;;;;8.90;5.35;;;12.20;99.90;;;;;;5040415;28;20022;-74
2023/05/16 01:38:49;;;;;;;11.77;5.95;;;12.10;99.90;;;;;;5038880;28;20022;-73
2023/05/16 01:41:23;;;;;;;14.75;6.25;;;12.10;99.90;;;;;;5040310;28;20036;-73
2023/05/16 01:43:54;;;;;;;6.13;4.93;;;12.10;99.90;;;;;;5039020;28;20037;-73
2023/05/16 01:46:25;;;;;;;12.05;6.82;;;12.10;99.90;;;;;;5040061;28;20032;-74
2023/05/16 01:49:15;;;;;;;10.43;5.55;;;12.10;99.90;;;;;;5040185;28;20405;-74
2023/05/16 01:51:44;;;;;;;9.38;6.35;;;12.00;99.90;;;;;;5040583;28;20026;-73
2023/05/16 01:54:12;;;;;;;8.30;5.65;;;12.00;99.90;;;;;;5039751;28;20049;-73
2023/05/16 01:56:42;;;;;;;10.43;5.18;;;12.00;99.90;;;;;;5038850;28;20079;-75
2023/05/16 01:59:08;;;;;;;14.83;8.40;;;12.00;99.90;;;;;;5039916;28;20100;-73
2023/05/16 02:01:34;;;;;;;12.98;6.25;;;12.00;99.90;;;;;;5040249;28;20022;-73
2023/05/16 02:04:00;;;;;;;10.77;6.28;;;11.90;99.90;;;;;;5040016;28;20044;-73
2023/05/16 02:06:26;;;;;;;8.60;6.30;;;11.90;99.90;;;;;;5038634;28;20031;-76
2023/05/16 02:08:51;;;;;;;11.82;5.95;;;11.90;99.90;;;;;;5038103;28;20026;-74
2023/05/16 02:11:17;;;;;;;10.63;6.40;;;11.90;99.90;;;;;;5039800;28;20034;-73
2023/05/16 02:13:43;;;;;;;12.60;6.22;;;11.90;99.90;;;;;;5039583;28;20021;-73
2023/05/16 02:16:10;;;;;;;11.48;6.03;;;11.90;99.90;;;;;;5039939;28;20029;-73
2023/05/16 02:18:36;;;;;;;9.77;5.93;;;11.90;99.90;;;;;;5039327;28;20050;-72
2023/05/16 02:21:01;;;;;;;9.43;7.38;;;11.90;99.90;;;;;;5039670;28;20037;-75
2023/05/16 02:23:27;;;;;;;9.77;5.97;;;11.90;99.90;;;;;;5039300;28;20080;-74
2023/05/16 02:25:52;;;;;;;8.88;6.13;;;11.90;99.90;;;;;;5039520;28;20115;-74
2023/05/16 02:28:18;;;;;;;10.73;5.85;;;11.90;99.90;;;;;;5039358;28;20056;-75
2023/05/16 02:30:44;;;;;;;7.68;5.50;;;11.90;99.90;;;;;;5039643;28;20060;-75
2023/05/16 02:33:10;;;;;;;10.15;6.53;;;11.90;99.90;;;;;;5039206;28;20021;-73
2023/05/16 02:35:36;;;;;;;8.32;6.18;;;11.90;99.90;;;;;;5039323;28;20029;-75
2023/05/16 02:38:01;;;;;;;12.48;6.07;;;11.90;99.90;;;;;;5038997;28;20029;-74
2023/05/16 02:40:27;;;;;;;12.05;6.20;;;11.90;99.90;;;;;;5039432;28;20478;-73
2023/05/16 02:42:53;;;;;;;12.13;8.27;;;11.90;99.90;;;;;;5038110;28;20067;-74
2023/05/16 02:45:18;;;;;;;9.90;5.30;;;11.80;99.90;;;;;;5039353;28;20051;-75
2023/05/16 02:47:44;;;;;;;9.15;6.28;;;11.90;99.90;;;;;;5037649;28;20113;-74
2023/05/16 02:50:10;;;;;;;11.45;5.40;;;11.90;99.90;;;;;;5039129;28;20075;-72
2023/05/16 02:52:35;;;;;;;8.98;6.40;;;11.90;99.90;;;;;;5037377;28;20030;-74
2023/05/16 02:55:01;;;;;;;7.43;5.93;;;11.90;99.90;;;;;;5039178;28;20030;-73
2023/05/16 02:57:27;;;;;;;8.20;5.78;;;11.80;99.90;;;;;;5038868;28;20026;-74
2023/05/16 02:59:52;;;;;;;6.63;5.25;;;11.80;99.90;;;;;;5038908;28;20111;-75
2023/05/16 03:02:18;;;;;;;6.63;5.50;;;11.80;99.90;;;;;;5038671;28;20428;-73
2023/05/16 03:04:43;;;;;;;7.05;4.75;;;11.80;99.90;;;;;;5038237;28;20490;-74
2023/05/16 03:07:09;;;;;;;12.80;6.38;;;11.80;99.90;;;;;;5036214;28;20036;-73
2023/05/16 03:09:35;;;;;;;9.43;6.78;;;11.80;99.90;;;;;;5037417;28;20025;-75
2023/05/16 03:12:00;;;;;;;8.48;6.40;;;11.90;99.90;;;;;;5038512;28;20096;-75
2023/05/16 03:14:26;;;;;;;7.72;5.95;;;11.90;99.90;;;;;;5038873;28;20108;-74
2023/05/16 03:16:52;;;;;;;14.52;6.45;;;11.90;99.90;;;;;;5038560;28;20093;-74
2023/05/16 03:19:17;;;;;;;8.93;6.10;;;11.80;99.90;;;;;;5038187;28;20156;-75
2023/05/16 03:21:43;;;;;;;12.00;6.30;;;11.80;99.90;;;;;;5037887;28;20021;-75
2023/05/16 03:24:10;;;;;;;8.82;5.82;;;11.80;99.90;;;;;;5038188;28;20067;-75
2023/05/16 03:26:35;;;;;;;10.75;5.63;;;11.80;99.90;;;;;;5038333;28;20055;-75
2023/05/16 03:29:01;;;;;;;11.60;6.30;;;11.80;99.90;;;;;;5038358;28;20033;-75
2023/05/16 03:31:27;;;;;;;7.55;6.05;;;11.70;99.90;;;;;;5038269;28;20022;-73
2023/05/16 03:33:52;;;;;;;8.45;6.00;;;11.70;99.90;;;;;;5038176;28;20018;-74
2023/05/16 03:36:20;;;;;;;6.72;5.95;;;11.70;99.90;;;;;;5038090;28;20048;-74
2023/05/16 03:38:46;;;;;;;7.65;5.15;;;11.70;99.90;;;;;;5038088;28;20151;-74
2023/05/16 03:41:12;;;;;;;8.00;5.55;;;11.70;99.90;;;;;;5036879;28;20052;-76
2023/05/16 03:43:37;;;;;;;8.10;6.00;;;11.70;99.90;;;;;;5038166;28;21130;-75
2023/05/16 03:46:03;;;;;;;10.52;5.75;;;11.70;99.90;;;;;;5037812;28;20026;-76
2023/05/16 03:48:29;;;;;;;10.20;6.63;;;11.70;99.90;;;;;;5037760;28;20028;-76
2023/05/16 03:50:54;;;;;;;11.70;5.72;;;11.70;99.90;;;;;;5037918;28;20095;-75
2023/05/16 03:53:20;;;;;;;5.72;4.75;;;11.70;99.90;;;;;;5037745;28;20026;-75
2023/05/16 03:55:46;;;;;;;6.95;5.20;;;11.70;99.90;;;;;;5037738;28;20108;-75
2023/05/16 03:58:11;;;;;;;10.20;5.45;;;11.70;99.90;;;;;;5037888;28;20025;-74
2023/05/16 04:00:37;;;;;;;7.50;5.57;;;11.70;99.90;;;;;;5037847;28;20021;-73
2023/05/16 04:03:03;;;;;;;8.23;5.45;;;11.80;99.90;;;;;;5037674;28;20050;-73
2023/05/16 04:05:29;;;;;;;6.60;5.70;;;11.80;99.90;;;;;;5037781;28;20429;-74
2023/05/16 04:07:54;;;;;;;8.07;5.20;;;11.80;99.90;;;;;;5037460;28;20052;-74
2023/05/16 04:10:20;;;;;;;9.23;4.80;;;11.70;99.90;;;;;;5037658;28;20089;-73
2023/05/16 04:12:46;;;;;;;11.70;5.63;;;11.70;99.90;;;;;;5036336;28;20033;-73
2023/05/16 04:15:12;;;;;;;11.88;6.35;;;11.70;99.90;;;;;;5037323;28;20022;-74
2023/05/16 04:17:37;;;;;;;4.70;4.22;;;11.70;99.90;;;;;;5037431;28;20510;-73
2023/05/16 04:20:03;;;;;;;6.95;4.22;;;11.70;99.90;;;;;;5037346;28;20026;-73
2023/05/16 04:22:29;;;;;;;6.03;5.13;;;11.70;99.90;;;;;;5037236;28;20029;-74
2023/05/16 04:24:55;;;;;;;10.57;5.70;;;11.70;99.90;;;;;;5037385;28;20086;-74
2023/05/16 04:27:22;;;;;;;5.97;5.25;;;11.70;99.90;;;;;;5037563;28;20041;-73
2023/05/16 04:29:48;;;;;;;6.38;5.70;;;11.70;99.90;;;;;;5037254;28;20498;-74
2023/05/16 04:32:14;;;;;;;7.82;5.80;;;11.70;99.90;;;;;;5035332;28;20092;-73
2023/05/16 04:34:39;;;;;;;9.38;5.72;;;11.70;99.90;;;;;;5037003;28;20025;-73
2023/05/16 04:37:06;;;;;;;6.13;5.07;;;11.70;99.90;;;;;;5037032;28;20033;-74
2023/05/16 04:39:33;;;;;;;9.00;5.32;;;11.70;99.90;;;;;;5037212;28;20041;-73
2023/05/16 04:42:00;;;;;;;7.25;4.95;;;11.70;99.90;;;;;;5035997;28;20056;-75
2023/05/16 04:44:25;;;;;;;6.75;5.28;;;11.70;99.90;;;;;;5037249;28;20109;-73
2023/05/16 04:46:52;;;;;;;5.25;4.60;;;11.70;99.90;;;;;;5035806;28;20068;-74
2023/05/16 04:49:21;;;;;;;5.82;5.07;;;11.70;99.90;;;;;;5036920;28;20025;-74
2023/05/16 04:51:47;;;;;;;6.10;5.05;;;11.70;99.90;;;;;;5035609;28;20029;-73
2023/05/16 04:54:13;;;;;;;7.38;5.22;;;11.80;99.90;;;;;;5035632;28;20025;-75
2023/05/16 04:56:39;;;;;;;6.82;4.82;;;11.70;99.90;;;;;;5037141;28;20482;-74
2023/05/16 04:59:05;;;;;;;6.70;5.18;;;11.80;99.90;;;;;;5036764;28;20077;-74
2023/05/16 05:01:30;;;;;;;8.38;4.82;;;11.80;99.90;;;;;;5037017;28;20076;-73
2023/05/16 05:03:56;;;;;;;8.60;5.00;;;11.80;99.90;;;;;;5035490;28;20033;-73
2023/05/16 05:06:22;;;;;;;5.72;4.45;;;11.80;99.90;;;;;;5037070;28;20028;-76
2023/05/16 05:08:48;;;;;;;7.90;4.57;;;11.80;99.90;;;;;;5036617;28;20124;-74
2023/05/16 05:11:14;;;;;;;7.60;4.80;;;11.80;99.90;;;;;;5035572;28;20596;-73
2023/05/16 05:13:39;;;;;;;5.82;5.05;;;11.80;99.90;;;;;;5036959;28;20056;-73
2023/05/16 05:16:05;;;;;;;6.10;4.75;;;11.70;99.90;;;;;;5035507;28;20083;-74
2023/05/16 05:18:31;;;;;;;6.25;4.93;;;11.70;99.90;;;;;;5036536;28;20053;-73
2023/05/16 05:20:57;;;;;;;9.75;4.95;;;11.70;99.90;;;;;;5036839;28;20033;-74
2023/05/16 05:23:23;;;;;;;5.72;4.70;;;11.70;99.90;;;;;;5035104;28;20029;-75
2023/05/16 05:25:49;;;;;;;5.63;4.47;;;11.70;99.90;;;;;;5036783;28;20493;-73
2023/05/16 05:28:16;;;;;;;5.90;5.30;;;11.70;99.90;;;;;;5035519;28;20049;-73
2023/05/16 05:30:41;;;;;;;5.90;4.90;;;11.70;99.90;;;;;;5036959;28;20413;-75
2023/05/16 05:33:07;;;;;;;5.35;4.85;;;11.70;99.90;;;;;;5036475;28;20064;-73
2023/05/16 05:35:33;;;;;;;8.40;5.47;;;11.60;99.90;;;;;;5036640;28;20026;-73
2023/05/16 05:37:58;;;;;;;5.57;5.00;;;11.60;99.90;;;;;;5036256;28;20033;-74
2023/05/16 05:40:24;;;;;;;6.55;4.93;;;11.60;99.90;;;;;;5036793;28;20053;-73
2023/05/16 05:42:50;;;;;;;6.95;5.00;;;11.60;99.90;;;;;;5036579;28;20017;-74
2023/05/16 05:45:15;;;;;;;7.18;5.18;;;11.60;99.90;;;;;;5038979;28;20032;-74
2023/05/16 05:47:42;;;;;;;7.95;4.90;;;11.60;99.90;;;;;;5040070;28;20021;-74
2023/05/16 05:50:10;;;;;;;9.80;5.25;;;11.60;99.90;;;;;;5040275;28;20022;-74
2023/05/16 05:52:36;;;;;;;6.30;5.40;;;11.60;99.90;;;;;;5039864;28;20025;-74
2023/05/16 05:55:02;;;;;;;10.32;5.15;;;11.60;99.90;;;;;;5040151;28;20067;-73
2023/05/16 05:57:28;;;;;;;5.75;4.90;;;11.60;99.90;;;;;;5040007;28;20263;-73
2023/05/16 05:59:54;;;;;;;5.47;4.90;;;11.70;99.90;;;;;;5039958;28;20041;-73
2023/05/16 06:02:20;;;;;;;5.88;4.97;;;11.70;99.90;;;;;;5039878;28;20801;-74
2023/05/16 06:04:45;;;;;;;4.28;3.88;;;11.70;99.90;;;;;;5040050;28;20029;-72
2023/05/16 06:07:11;;;;;;;6.32;5.28;;;11.70;99.90;;;;;;5037533;28;20508;-74
2023/05/16 06:09:37;;;;;;;5.70;5.10;;;11.70;99.90;;;;;;5039488;28;20535;-74
2023/05/16 06:12:03;;;;;;;5.82;4.45;;;11.70;99.90;;;;;;5039228;28;20030;-75
2023/05/16 06:14:29;;;;;;;5.32;4.22;;;11.70;99.90;;;;;;5039478;28;20083;-75
2023/05/16 06:16:55;;;;;;;5.72;5.05;;;11.70;99.90;;;;;;5039183;28;20100;-75
2023/05/16 06:19:21;;;;;;;5.18;4.30;;;11.70;99.90;;;;;;5037745;28;20041;-74
2023/05/16 06:21:46;;;;;;;6.03;4.82;;;11.70;99.90;;;;;;5038821;28;20521;-74
2023/05/16 06:24:12;;;;;;;6.45;5.05;;;11.70;99.90;;;;;;5037864;28;20458;-73
2023/05/16 06:26:38;;;;;;;6.43;4.63;;;11.60;99.90;;;;;;5039335;28;20021;-74
2023/05/16 06:29:03;;;;;;;6.00;4.57;;;11.60;99.90;;;;;;5039037;28;20521;-76
2023/05/16 06:31:30;;;;;;;6.40;4.30;;;11.60;99.90;;;;;;5037608;28;20026;-73
2023/05/16 06:33:56;;;;;;;6.90;5.20;;;11.50;99.90;;;;;;5039283;28;20025;-74
2023/05/16 06:36:21;;;;;;;5.82;5.20;;;11.60;99.90;;;;;;5037890;28;20104;-74
2023/05/16 06:38:47;;;;;;;10.05;5.47;;;11.60;99.90;;;;;;5032490;28;20105;-74
2023/05/16 06:41:13;;;;;;;7.13;6.20;;;11.60;99.90;;;;;;5028694;28;20550;-76
2023/05/16 06:43:39;;;;;;;6.57;5.38;;;11.70;99.90;;;;;;5037645;28;20505;-75
2023/05/16 06:46:05;;;;;;;6.10;5.50;;;11.70;99.90;;;;;;5038964;28;20026;-74
2023/05/16 06:48:30;;;;;;;12.30;7.82;;;11.70;99.90;;;;;;5030164;28;20036;-76
2023/05/16 06:50:56;;;;;;;8.75;5.82;;;11.70;99.90;;;;;;5033597;28;20029;-77
2023/05/16 06:53:22;;;;;;;6.13;5.53;;;11.70;99.90;;;;;;5037569;28;20030;-76
2023/05/16 06:55:48;;;;;;;7.43;5.28;;;11.70;99.90;;;;;;5037099;28;20049;-73
2023/05/16 06:58:13;;;;;;;9.07;6.40;;;11.70;99.90;;;;;;5038781;28;20075;-75
2023/05/16 07:00:40;;;;;;;11.57;5.72;;;11.80;99.90;;;;;;5037641;28;20018;-76
2023/05/16 07:03:06;;;;;;;7.80;5.35;;;11.80;99.90;;;;;;5034639;28;20025;-75
2023/05/16 07:05:32;;;;;;;7.15;5.85;;;11.90;99.90;;;;;;5034395;28;20021;-74
2023/05/16 07:07:57;;;;;;;7.95;5.20;;;11.90;99.90;;;;;;5036748;28;20051;-74
2023/05/16 07:10:23;;;;;;;6.60;4.97;;;11.90;99.90;;;;;;5038207;28;20033;-75
2023/05/16 07:12:49;;;;;;;5.93;5.32;;;12.00;99.90;;;;;;5036881;28;20025;-73
2023/05/16 07:15:14;;;;;;;6.45;5.55;;;12.00;99.90;;;;;;5038135;28;20469;-74
2023/05/16 07:17:40;;;;;;;6.18;4.93;;;12.00;99.90;;;;;;5038289;28;20045;-74
2023/05/16 07:20:10;;;;;;;5.75;5.05;;;12.00;99.90;;;;;;5038024;28;20108;-73
2023/05/16 07:22:35;;;;;;;6.87;5.20;;;12.00;99.90;;;;;;5037927;28;20105;-74
2023/05/16 07:25:01;;;;;;;6.47;5.20;;;12.10;99.90;;;;;;5029246;28;20056;-74
2023/05/16 07:27:27;;;;;;;7.88;4.70;;;12.10;99.90;;;;;;5022938;28;20061;-74
2023/05/16 07:29:53;;;;;;;6.13;5.18;;;12.20;99.90;;;;;;5028064;28;20022;-75
2023/05/16 07:32:19;;;;;;;5.72;5.03;;;12.20;99.90;;;;;;5024327;28;20037;-76
2023/05/16 07:34:45;;;;;;;6.82;6.10;;;12.20;99.90;;;;;;5029294;28;20089;-76
2023/05/16 07:37:11;;;;;;;6.15;4.90;;;12.20;99.90;;;;;;5033376;28;20511;-74
2023/05/16 07:39:41;;;;;;;7.28;5.82;;;12.30;99.90;;;;;;5036001;28;20021;-74
2023/05/16 07:42:07;;;;;;;7.00;5.10;;;12.30;99.90;;;;;;5035900;28;20478;-76
2023/05/16 07:44:33;;;;;;;9.60;4.90;;;12.30;99.90;;;;;;5034719;28;20026;-75
2023/05/16 07:46:59;;;;;;;8.80;5.65;;;12.40;99.90;;;;;;5036023;28;20028;-75
2023/05/16 07:49:25;;;;;;;5.93;4.63;;;12.40;99.90;;;;;;5035906;28;20099;-74
2023/05/16 07:51:50;;;;;;;7.85;5.95;;;12.40;99.90;;;;;;5035651;28;20061;-75
2023/05/16 07:54:16;;;;;;;6.45;5.47;;;12.40;99.90;;;;;;5033460;28;20029;-75
2023/05/16 07:56:42;;;;;;;5.80;5.20;;;12.40;99.90;;;;;;5027657;28;20025;-75
2023/05/16 07:59:08;;;;;;;6.28;5.25;;;12.40;99.90;;;;;;5025383;28;20029;-76
2023/05/16 08:01:34;;;;;;;6.35;5.50;;;12.40;99.90;;;;;;5034822;28;20458;-76
2023/05/16 08:04:00;;;;;;;9.10;5.43;;;12.40;99.90;;;;;;5031843;28;20068;-75
2023/05/16 08:06:25;;;;;;;9.38;4.97;;;12.40;99.90;;;;;;5034589;28;20026;-75
2023/05/16 08:08:51;;;;;;;7.85;5.03;;;12.40;99.90;;;;;;5034183;28;20021;-74
2023/05/16 08:11:18;;;;;;;6.40;5.05;;;12.50;99.90;;;;;;5034020;28;20032;-78
2023/05/16 08:13:44;;;;;;;5.90;4.93;;;12.50;99.90;;;;;;5034064;28;20083;-75
2023/05/16 08:16:10;;;;;;;7.38;5.28;;;12.50;99.90;;;;;;5035664;28;20029;-74
2023/05/16 08:18:36;;;;;;;5.53;4.05;;;12.50;99.90;;;;;;5033900;28;20050;-74
2023/05/16 08:21:01;;;;;;;6.50;4.85;;;12.50;99.90;;;;;;5034991;28;20107;-76
2023/05/16 08:23:27;;;;;;;5.20;4.70;;;12.50;99.90;;;;;;5035100;28;20028;-76
2023/05/16 08:25:53;;;;;;;8.35;4.75;;;12.60;99.90;;;;;;5035606;28;20040;-76
2023/05/16 08:28:19;;;;;;;4.97;3.88;;;12.60;99.90;;;;;;5035355;28;20026;-74
2023/05/16 08:30:45;;;;;;;7.07;4.07;;;12.80;99.90;;;;;;5033876;28;20030;-74
2023/05/16 08:33:10;;;;;;;6.47;4.10;;;12.90;99.90;;;;;;5035256;28;20032;-73
2023/05/16 08:35:36;;;;;;;6.45;4.72;;;13.10;99.90;;;;;;5035152;28;20033;-76
2023/05/16 08:38:02;;;;;;;6.18;4.80;;;13.20;99.90;;;;;;5035204;28;20118;-75
2023/05/16 08:40:28;;;;;;;4.60;4.10;;;13.40;99.90;;;;;;5034580;28;20398;-75
2023/05/16 08:42:54;;;;;;;4.63;3.88;;;13.50;99.90;;;;;;5034896;28;20018;-74
2023/05/16 08:45:22;;;;;;;3.95;3.55;;;13.60;99.90;;;;;;5033788;28;20057;-75
2023/05/16 08:47:50;;;;;;;5.03;3.90;;;13.60;99.90;;;;;;5035307;28;20023;-75
2023/05/16 08:50:16;;;;;;;6.15;4.35;;;13.60;99.90;;;;;;5035230;28;20038;-75
2023/05/16 08:52:43;;;;;;;4.10;3.47;;;13.70;99.90;;;;;;5034197;28;20072;-76
2023/05/16 08:55:10;;;;;;;3.72;3.20;;;13.90;99.90;;;;;;5035150;28;20514;-76
2023/05/16 08:57:36;;;;;;;5.00;3.58;;;14.00;99.90;;;;;;5034131;28;20033;-74
2023/05/16 09:00:10;;;;;;;5.15;3.63;;;14.10;99.90;;;;;;5034822;28;20017;-77
2023/05/16 09:02:38;;;;;;;4.82;3.88;;;14.50;99.90;;;;;;5034114;28;20481;-76
2023/05/16 09:05:05;;;;;;;4.75;3.85;;;14.90;99.90;;;;;;5033852;28;20029;-73
2023/05/16 09:07:30;;;;;;;4.38;3.30;;;15.00;99.90;;;;;;5034639;28;20021;-75
2023/05/16 09:09:56;;;;;;;5.28;3.25;;;15.10;99.90;;;;;;5035250;28;20048;-75
2023/05/16 09:12:21;;;;;;;5.43;3.22;;;15.20;99.90;;;;;;5033696;28;20040;-75
2023/05/16 09:14:47;;;;;;;5.75;2.80;;;15.40;99.90;;;;;;5035223;28;20045;-77
2023/05/16 09:17:14;;;;;;;7.53;3.03;;;15.20;99.90;;;;;;5035363;28;20025;-75
2023/05/16 09:19:41;;;;;;;3.40;2.95;;;14.90;99.90;;;;;;5038199;28;20032;-75
2023/05/16 09:22:14;;;;;;;3.30;2.75;;;14.80;99.90;;;;;;5037006;28;20440;-75
2023/05/16 09:24:41;;;;;;;4.03;3.10;;;14.80;99.90;;;;;;5037663;28;20112;-76
2023/05/16 09:27:11;;;;;;;3.65;2.78;;;14.70;99.90;;;;;;5038946;28;20044;-75
2023/05/16 09:29:50;;;;;;;2.42;2.22;;;14.70;99.90;;;;;;5038819;28;20029;-75
2023/05/16 09:32:16;;;;;;;3.03;2.10;;;14.60;99.90;;;;;;5037753;28;20029;-78
2023/05/16 09:34:50;;;;;;;3.15;2.28;;;14.50;99.90;;;;;;5038387;28;20018;-75
2023/05/16 09:37:17;;;;;;;2.40;1.90;;;14.50;99.90;;;;;;5035137;28;20022;-76
2023/05/16 09:39:47;;;;;;;13.52;2.78;;;14.30;99.90;;;;;;5038591;28;20018;-75
2023/05/16 09:42:14;;;;;;;4.03;3.10;;;14.30;99.90;;;;;;5037246;28;20026;-77
2023/05/16 09:44:41;;;;;;;3.47;2.67;;;14.10;99.90;;;;;;5038653;28;20025;-75
2023/05/16 09:47:07;;;;;;;3.67;2.50;;;14.30;99.90;;;;;;5038512;28;20033;-74
2023/05/16 09:49:32;;;;;;;3.22;2.70;;;14.40;99.90;;;;;;5038845;28;20029;-76
2023/05/16 09:52:02;;;;;;;3.33;2.72;;;14.60;99.90;;;;;;5037662;28;20026;-75
2023/05/16 09:54:32;;;;;;;2.97;2.53;;;14.70;99.90;;;;;;5037429;28;20482;-76
2023/05/16 09:56:59;;;;;;;4.28;2.80;;;14.70;99.90;;;;;;5037350;28;20049;-76
2023/05/16 09:59:27;;;;;;;5.75;3.00;;;14.70;99.90;;;;;;5038530;28;20029;-74
2023/05/16 10:01:53;;;;;;;3.38;2.40;;;14.80;99.90;;;;;;5037954;28;20033;-74
2023/05/16 10:04:19;;;;;;;3.03;2.58;;;14.90;99.90;;;;;;5036991;28;20112;-75
2023/05/16 10:06:46;;;;;;;4.22;2.22;;;15.00;99.90;;;;;;5037127;28;20888;-76
2023/05/16 10:09:12;;;;;;;5.63;2.80;;;14.90;99.90;;;;;;5038275;28;20064;-74
2023/05/16 10:11:40;;;;;;;4.00;2.42;;;14.90;99.90;;;;;;5036627;28;20022;-75
2023/05/16 10:14:08;;;;;;;4.20;2.90;;;14.90;99.90;;;;;;5037994;28;20071;-75
2023/05/16 10:16:34;;;;;;;3.97;3.10;;;14.80;99.90;;;;;;5038285;28;20032;-75
2023/05/16 10:19:02;;;;;;;3.03;2.50;;;14.70;99.90;;;;;;5038074;28;20037;-75
2023/05/16 10:21:30;;;;;;;3.28;2.42;;;14.60;99.90;;;;;;5037080;28;20435;-75
2023/05/16 10:24:01;;;;;;;4.00;2.92;;;14.50;99.90;;;;;;5038015;28;20437;-76
2023/05/16 10:26:27;;;;;;;3.95;2.90;;;14.50;99.90;;;;;;5038161;28;20026;-73
2023/05/16 10:28:54;;;;;;;3.38;2.67;;;14.60;99.90;;;;;;5038161;28;20795;-74
2023/05/16 10:31:20;;;;;;;2.95;2.30;;;14.60;99.90;;;;;;5036411;28;20021;-77
2023/05/16 10:33:46;;;;;;;4.85;3.05;;;14.70;99.90;;;;;;5034149;28;20036;-75
2023/05/16 10:36:13;;;;;;;4.57;2.83;;;14.80;99.90;;;;;;5030914;28;20017;-77
2023/05/16 10:38:39;;;;;;;3.08;2.40;;;14.90;99.90;;;;;;5034786;28;20033;-74
2023/05/16 10:41:07;;;;;;;6.05;2.85;;;14.90;99.90;;;;;;5033916;28;20490;-74
2023/05/16 10:43:32;;;;;;;9.98;5.70;;;14.90;99.90;;;;;;5035710;28;20029;-74
2023/05/16 10:46:08;;;;;;;3.10;2.63;;;14.90;99.90;;;;;;5036879;28;20096;-75
2023/05/16 10:48:35;;;;;;;2.90;2.53;;;14.90;99.90;;;;;;5034996;28;20060;-75
2023/05/16 10:51:02;;;;;;;3.17;2.30;;;14.90;99.90;;;;;;5036463;28;20116;-73
2023/05/16 10:53:39;;;;;;;4.13;2.70;;;15.00;99.90;;;;;;5037343;28;20101;-74
2023/05/16 10:56:09;;;;;;;4.97;2.72;;;15.10;99.90;;;;;;5037323;28;20557;-75
2023/05/16 10:58:37;;;;;;;2.90;2.43;;;15.20;99.90;;;;;;5037682;28;20021;-75
2023/05/16 11:01:26;;;;;;;7.05;2.60;;;15.20;99.90;;;;;;5036872;28;20029;-73
2023/05/16 11:03:58;;;;;;;3.30;2.90;;;15.10;99.90;;;;;;5028331;28;20052;-74
2023/05/16 11:06:25;;;;;;;5.88;2.40;;;15.20;99.90;;;;;;5034212;28;20036;-75
2023/05/16 11:09:05;;;;;;;2.88;2.35;;;15.40;99.90;;;;;;5036964;28;20033;-75
2023/05/16 11:11:58;;;;;;;3.25;2.65;;;15.70;99.90;;;;;;5032510;28;20084;-75
2023/05/16 11:14:31;;;;;;;4.75;2.28;;;16.20;99.90;;;;;;5034430;28;20472;-75
2023/05/16 11:17:05;;;;;;;6.80;2.50;;;16.50;99.90;;;;;;5036838;28;20454;-75
2023/05/16 11:19:32;;;;;;;2.70;2.15;;;16.60;99.90;;;;;;5034991;28;20068;-74
2023/05/16 11:22:22;;;;;;;3.17;1.77;;;16.50;99.90;;;;;;5036058;28;20026;-74
2023/05/16 11:25:08;;;;;;;2.57;1.90;;;16.40;99.90;;;;;;5032940;28;20025;-76
2023/05/16 11:27:43;;;;;;;2.70;2.05;;;16.10;99.90;;;;;;5035846;28;20077;-74
2023/05/16 11:30:09;;;;;;;2.83;1.95;;;15.90;99.90;;;;;;5036549;28;20025;-74
2023/05/16 11:32:37;;;;;;;3.50;1.95;;;15.50;99.90;;;;;;5022251;28;20029;-75
2023/05/16 11:35:04;;;;;;;2.47;1.65;;;15.30;99.90;;;;;;5032408;28;20038;-74
2023/05/16 11:37:30;;;;;;;2.85;2.03;;;15.10;99.90;;;;;;5035694;28;20018;-74
2023/05/16 11:40:03;;;;;;;3.53;2.70;;;15.10;99.90;;;;;;5036430;28;20601;-74
2023/05/16 11:42:38;;;;;;;1.98;1.77;;;15.10;99.90;;;;;;5034105;28;20025;-73
2023/05/16 11:45:08;;;;;;;2.72;1.90;;;15.00;99.90;;;;;;5034428;28;20108;-74
2023/05/16 11:47:38;;;;;;;3.45;2.05;;;15.20;99.90;;;;;;5035838;28;20013;-75
2023/05/16 11:50:11;;;;;;;5.40;2.50;;;15.70;99.90;;;;;;5036459;28;20029;-74
2023/05/16 11:52:37;;;;;;;4.53;2.35;;;16.20;99.90;;;;;;5033962;28;20754;-74
2023/05/16 11:55:05;;;;;;;2.38;1.98;;;16.50;99.90;;;;;;5036059;28;20029;-75
2023/05/16 11:57:32;;;;;;;7.35;2.20;;;16.90;99.90;;;;;;5025915;28;20038;-72
2023/05/16 12:00:10;;;;;;;2.97;2.00;;;16.90;99.90;;;;;;5032433;28;20013;-72
2023/05/16 12:02:35;;;;;;;2.53;1.80;;;16.60;99.90;;;;;;5035462;28;20031;-72
2023/05/16 12:05:09;;;;;;;3.60;1.80;;;16.20;99.90;;;;;;5035754;28;20053;-73
2023/05/16 12:07:36;;;;;;;4.22;2.10;;;15.90;99.90;;;;;;5035443;28;20453;-72
2023/05/16 12:10:10;;;;;;;4.38;1.90;;;16.00;99.90;;;;;;5035696;28;20025;-72
2023/05/16 12:12:37;;;;;;;2.20;1.60;;;16.30;99.90;;;;;;5033418;28;20025;-73
2023/05/16 12:15:05;;;;;;;2.42;1.52;;;16.70;99.90;;;;;;5035463;28;20505;-73
2023/05/16 12:17:31;;;;;;;3.28;1.75;;;16.90;99.90;;;;;;5035526;28;20659;-72
2023/05/16 12:19:58;;;;;;;2.97;1.50;;;16.90;99.90;;;;;;5035630;28;20014;-70
2023/05/16 12:22:24;;;;;;;2.00;1.70;;;16.90;99.90;;;;;;5033868;28;20076;-71
2023/05/16 12:24:50;;;;;;;4.00;1.80;;;16.80;99.90;;;;;;5035547;28;20045;-73
2023/05/16 12:27:24;;;;;;;2.25;1.55;;;16.60;99.90;;;;;;5035639;28;20032;-73
2023/05/16 12:29:49;;;;;;;1.63;1.38;;;16.80;99.90;;;;;;5035411;28;20029;-74
2023/05/16 12:32:21;;;;;;;2.20;1.70;;;16.90;99.90;;;;;;5031969;28;20032;-74
2023/05/16 12:34:50;;;;;;;2.88;2.15;;;17.10;99.90;;;;;;5035031;28;20032;-71
2023/05/16 12:37:17;;;;;;;3.10;1.40;;;17.10;99.90;;;;;;5035270;28;20113;-73
2023/05/16 12:39:45;;;;;;;2.42;1.48;;;16.90;99.90;;;;;;5034990;28;20017;-73
2023/05/16 12:42:12;;;;;;;1.45;1.35;;;16.90;99.90;;;;;;5033413;28;20033;-72
2023/05/16 12:44:38;;;;;;;2.50;1.50;;;16.90;99.90;;;;;;5033549;28;20022;-72
2023/05/16 12:47:11;;;;;;;5.60;2.13;;;16.70;99.90;;;;;;5035209;28;20029;-71